createdAt,value
2022-10-24T00:02:25.478Z,26.87
2022-10-24T00:04:55.739Z,32.25
2022-10-24T00:07:26.014Z,31.50
2022-10-24T00:09:56.247Z,32.30
2022-10-24T00:12:26.682Z,24.95
2022-10-24T00:14:56.931Z,33.75
2022-10-24T00:17:27.174Z,24.55
2022-10-24T00:19:58.712Z,25.65
2022-10-24T00:22:29.800Z,29.57
2022-10-24T00:25:00.112Z,28.27
2022-10-24T00:27:30.587Z,27.25
2022-10-24T00:30:00.894Z,28.50
2022-10-24T00:32:31.263Z,30.35
2022-10-24T00:35:01.519Z,26.02
2022-10-24T00:37:31.779Z,25.57
2022-10-24T00:40:02.072Z,29.50
2022-10-24T00:42:32.373Z,27.65
2022-10-24T00:45:03.517Z,26.45
2022-10-24T00:47:33.846Z,31.23
2022-10-24T00:50:08.232Z,26.87
2022-10-24T00:52:39.694Z,26.87
2022-10-24T00:55:10.390Z,33.88
2022-10-24T00:57:42.084Z,25.15
2022-10-24T01:00:13.951Z,30.72
2022-10-24T01:02:44.704Z,29.23
2022-10-24T01:05:15.491Z,30.88
2022-10-24T01:07:55.700Z,28.75
2022-10-24T01:10:33.077Z,27.65
2022-10-24T01:13:16.604Z,24.02
2022-10-24T01:15:48.382Z,25.88
2022-10-24T01:18:26.139Z,26.07
2022-10-24T01:20:57.776Z,24.77
2022-10-24T01:23:44.108Z,23.30
2022-10-24T01:26:31.942Z,22.20
2022-10-24T01:29:09.608Z,25.80
2022-10-24T01:31:49.951Z,23.00
2022-10-24T01:34:21.443Z,89.32
2022-10-24T01:36:52.791Z,19.55
2022-10-24T01:39:24.423Z,19.32
2022-10-24T01:41:56.078Z,19.10
2022-10-24T01:44:27.501Z,18.07
2022-10-24T01:46:58.963Z,18.50
2022-10-24T01:49:30.379Z,15.30
2022-10-24T01:52:02.235Z,17.82
2022-10-24T01:54:33.516Z,21.40
2022-10-24T01:57:16.366Z,20.25
2022-10-24T01:59:47.924Z,18.77
2022-10-24T02:02:19.424Z,18.12
2022-10-24T02:04:53.369Z,17.07
2022-10-24T02:07:23.873Z,16.73
2022-10-24T02:09:56.275Z,15.75
2022-10-24T02:12:28.867Z,18.98
2022-10-24T02:15:03.064Z,17.15
2022-10-24T02:17:33.287Z,19.32
2022-10-24T02:20:04.801Z,17.35
2022-10-24T02:22:52.418Z,18.30
2022-10-24T02:25:26.646Z,17.75
2022-10-24T02:28:01.041Z,18.40
2022-10-24T02:30:32.697Z,16.02
2022-10-24T02:33:03.044Z,15.75
2022-10-24T02:35:34.488Z,17.92
2022-10-24T02:38:08.424Z,15.78
2022-10-24T02:40:39.425Z,19.42
2022-10-24T02:43:10.208Z,15.98
2022-10-24T02:45:41.487Z,14.45
2022-10-24T02:48:14.599Z,15.40
2022-10-24T02:50:46.154Z,16.57
2022-10-24T02:53:17.551Z,17.92
2022-10-24T02:55:49.631Z,16.67
2022-10-24T02:58:23.485Z,18.67
2022-10-24T03:00:58.038Z,15.30
2022-10-24T03:03:31.569Z,20.02
2022-10-24T03:06:02.039Z,12.35
2022-10-24T03:08:32.259Z,16.02
2022-10-24T03:11:02.667Z,14.13
2022-10-24T03:13:32.911Z,12.68
2022-10-24T03:16:03.163Z,17.32
2022-10-24T03:18:35.166Z,12.80
2022-10-24T03:21:06.916Z,14.87
2022-10-24T03:23:37.383Z,12.07
2022-10-24T03:26:07.718Z,13.55
2022-10-24T03:28:37.944Z,11.60
2022-10-24T03:31:08.395Z,12.55
2022-10-24T03:33:38.724Z,11.10
2022-10-24T03:36:09.666Z,15.68
2022-10-24T03:38:41.127Z,15.55
2022-10-24T03:41:11.364Z,19.32
2022-10-24T03:43:41.611Z,13.70
2022-10-24T03:46:11.836Z,14.87
2022-10-24T03:48:42.225Z,12.75
2022-10-24T03:51:12.464Z,13.48
2022-10-24T03:53:42.718Z,10.85
2022-10-24T03:56:12.990Z,12.45
2022-10-24T03:58:43.228Z,12.18
2022-10-24T04:01:15.074Z,13.15
2022-10-24T04:03:45.727Z,13.15
2022-10-24T04:06:16.629Z,10.68
2022-10-24T04:08:47.380Z,11.38
2022-10-24T04:11:18.015Z,15.15
2022-10-24T04:13:48.712Z,12.63
2022-10-24T04:16:19.313Z,10.80
2022-10-24T04:18:49.902Z,10.48
2022-10-24T04:21:21.640Z,10.75
2022-10-24T04:23:52.114Z,10.72
2022-10-24T04:26:22.415Z,13.15
2022-10-24T04:28:52.663Z,12.20
2022-10-24T04:31:23.760Z,22.10
2022-10-24T04:33:54.105Z,11.15
2022-10-24T04:36:24.496Z,12.20
2022-10-24T04:38:55.351Z,13.08
2022-10-24T04:41:25.787Z,10.58
2022-10-24T04:43:56.283Z,12.53
2022-10-24T04:46:26.550Z,12.43
2022-10-24T04:48:57.297Z,9.75
2022-10-24T04:51:27.820Z,11.28
2022-10-24T04:53:58.114Z,18.37
2022-10-24T04:56:28.341Z,12.05
2022-10-24T04:58:58.988Z,10.95
2022-10-24T05:01:29.519Z,9.65
2022-10-24T05:06:30.254Z,12.30
2022-10-24T05:09:00.708Z,11.38
2022-10-24T05:11:31.108Z,11.00
2022-10-24T05:14:02.477Z,10.75
2022-10-24T05:16:32.974Z,10.65
2022-10-24T05:19:03.252Z,13.62
2022-10-24T05:21:34.434Z,10.65
2022-10-24T05:24:04.702Z,13.03
2022-10-24T05:26:39.249Z,12.10
2022-10-24T05:29:10.109Z,8.88
2022-10-24T05:31:40.509Z,10.70
2022-10-24T05:34:10.778Z,15.23
2022-10-24T05:36:41.020Z,12.63
2022-10-24T05:39:11.617Z,12.10
2022-10-24T05:41:44.786Z,11.97
2022-10-24T05:44:15.992Z,14.15
2022-10-24T05:46:46.222Z,12.23
2022-10-24T05:49:16.658Z,12.78
2022-10-24T05:51:46.867Z,10.82
2022-10-24T05:54:17.102Z,13.58
2022-10-24T05:56:47.395Z,11.45
2022-10-24T05:59:17.642Z,11.35
2022-10-24T06:01:47.979Z,10.30
2022-10-24T06:04:18.598Z,12.10
2022-10-24T06:06:48.937Z,11.05
2022-10-24T06:09:19.163Z,11.53
2022-10-24T06:11:49.654Z,11.83
2022-10-24T06:14:20.058Z,15.08
2022-10-24T06:16:50.433Z,10.65
2022-10-24T06:19:22.127Z,11.75
2022-10-24T06:21:52.594Z,10.78
2022-10-24T06:24:22.912Z,9.78
2022-10-24T06:26:56.204Z,9.20
2022-10-24T06:29:27.012Z,14.95
2022-10-24T06:31:57.296Z,12.98
2022-10-24T06:34:28.334Z,9.68
2022-10-24T06:36:58.567Z,10.78
2022-10-24T06:39:28.893Z,14.28
2022-10-24T06:41:59.125Z,9.65
2022-10-24T06:44:29.403Z,9.78
2022-10-24T06:46:59.736Z,12.00
2022-10-24T06:49:30.277Z,10.03
2022-10-24T06:52:00.613Z,10.30
2022-10-24T06:54:31.974Z,9.43
2022-10-24T06:57:02.356Z,10.38
2022-10-24T06:59:33.100Z,12.35
2022-10-24T07:02:05.925Z,13.13
2022-10-24T07:04:35.426Z,11.00
2022-10-24T07:07:05.886Z,11.85
2022-10-24T07:09:36.283Z,12.47
2022-10-24T07:12:06.795Z,9.40
2022-10-24T07:14:39.200Z,14.75
2022-10-24T07:17:09.598Z,12.80
2022-10-24T07:19:39.828Z,11.80
2022-10-24T07:22:10.169Z,11.75
2022-10-24T07:24:40.674Z,12.28
2022-10-24T07:27:11.000Z,10.88
2022-10-24T07:29:41.818Z,11.30
2022-10-24T07:32:12.742Z,9.73
2022-10-24T07:34:43.464Z,11.28
2022-10-24T07:37:15.077Z,9.15
2022-10-24T07:39:46.845Z,11.75
2022-10-24T07:42:17.598Z,11.70
2022-10-24T07:44:47.788Z,10.43
2022-10-24T07:47:18.051Z,9.00
2022-10-24T07:49:48.418Z,11.35
2022-10-24T07:52:19.078Z,13.48
2022-10-24T07:54:49.684Z,11.20
2022-10-24T07:57:20.410Z,10.60
2022-10-24T07:59:50.748Z,11.28
2022-10-24T08:02:21.413Z,8.88
2022-10-24T08:04:52.703Z,10.55
2022-10-24T08:07:23.332Z,11.60
2022-10-24T08:09:53.583Z,9.15
2022-10-24T08:12:24.103Z,8.65
2022-10-24T08:14:56.097Z,11.65
2022-10-24T08:17:26.331Z,11.20
2022-10-24T08:19:56.767Z,12.03
2022-10-24T08:22:31.685Z,10.55
2022-10-24T08:25:05.227Z,11.83
2022-10-24T08:27:35.549Z,12.37
2022-10-24T08:30:08.605Z,11.43
2022-10-24T08:32:40.303Z,8.35
2022-10-24T08:35:12.220Z,10.75
2022-10-24T08:37:46.687Z,11.05
2022-10-24T08:40:18.592Z,12.82
2022-10-24T08:42:49.702Z,11.10
2022-10-24T08:45:21.150Z,10.88
2022-10-24T08:48:01.360Z,9.55
2022-10-24T08:50:33.395Z,10.38
2022-10-24T08:53:04.836Z,15.15
2022-10-24T08:55:50.363Z,11.97
2022-10-24T08:58:18.706Z,11.05
2022-10-24T09:00:50.226Z,13.13
2022-10-24T09:06:14.491Z,10.18
2022-10-24T09:08:49.094Z,11.83
2022-10-24T09:11:32.772Z,9.25
2022-10-24T09:14:04.464Z,10.45
2022-10-24T09:16:35.043Z,10.82
2022-10-24T09:19:05.559Z,11.68
2022-10-24T09:21:35.839Z,11.68
2022-10-24T09:24:06.610Z,13.95
2022-10-24T09:26:39.294Z,9.48
2022-10-24T09:29:09.751Z,15.48
2022-10-24T09:31:50.500Z,10.53
2022-10-24T09:34:21.168Z,11.08
2022-10-24T09:36:51.922Z,15.65
2022-10-24T09:39:26.691Z,11.25
2022-10-24T09:41:57.460Z,9.73
2022-10-24T09:44:35.046Z,15.78
2022-10-24T09:47:07.146Z,9.38
2022-10-24T09:49:42.403Z,12.18
2022-10-24T09:52:23.269Z,11.12
2022-10-24T09:54:54.679Z,12.53
2022-10-24T09:57:26.875Z,11.55
2022-10-24T10:00:12.753Z,11.08
2022-10-24T10:02:44.474Z,10.43
2022-10-24T10:05:15.884Z,12.58
2022-10-24T10:07:48.219Z,13.43
2022-10-24T10:10:22.736Z,13.28
2022-10-24T10:12:59.976Z,12.30
2022-10-24T10:15:38.082Z,13.50
2022-10-24T10:18:25.042Z,13.68
2022-10-24T10:21:02.570Z,11.22
2022-10-24T10:23:33.994Z,10.93
2022-10-24T10:26:05.623Z,10.70
2022-10-24T10:28:37.027Z,13.30
2022-10-24T10:31:07.866Z,11.33
2022-10-24T10:33:54.476Z,10.40
2022-10-24T10:36:28.795Z,11.83
2022-10-24T10:39:03.490Z,11.60
2022-10-24T10:41:37.904Z,10.98
2022-10-24T10:44:12.160Z,13.25
2022-10-24T10:46:52.727Z,11.97
2022-10-24T10:49:33.518Z,13.10
2022-10-24T10:52:10.803Z,15.25
2022-10-24T10:54:45.060Z,13.45
2022-10-24T10:57:17.439Z,12.88
2022-10-24T10:59:49.196Z,16.50
2022-10-24T11:02:20.828Z,12.40
2022-10-24T11:04:55.380Z,19.98
2022-10-24T11:07:26.885Z,13.95
2022-10-24T11:09:59.131Z,21.20
2022-10-24T11:15:24.325Z,18.70
2022-10-24T11:17:58.896Z,16.45
2022-10-24T11:20:30.756Z,17.20
2022-10-24T11:23:08.478Z,17.73
2022-10-24T11:25:57.192Z,19.50
2022-10-24T11:28:38.369Z,16.00
2022-10-24T11:31:12.828Z,26.93
2022-10-24T11:33:47.338Z,22.80
2022-10-24T11:36:24.728Z,22.75
2022-10-24T11:39:05.350Z,17.00
2022-10-24T11:41:37.232Z,23.20
2022-10-24T11:44:27.256Z,18.80
2022-10-24T11:47:15.061Z,21.42
2022-10-24T11:49:46.914Z,18.15
2022-10-24T11:52:18.357Z,21.42
2022-10-24T11:54:58.865Z,20.00
2022-10-24T11:57:32.041Z,22.62
2022-10-24T12:00:02.141Z,17.92
2022-10-24T12:02:39.663Z,20.15
2022-10-24T12:05:17.981Z,19.17
2022-10-24T12:07:59.531Z,22.58
2022-10-24T12:10:33.770Z,23.20
2022-10-24T12:13:21.789Z,20.08
2022-10-24T12:16:09.949Z,21.27
2022-10-24T12:18:41.471Z,23.55
2022-10-24T12:21:13.375Z,23.50
2022-10-24T12:23:44.915Z,26.87
2022-10-24T12:26:22.876Z,22.45
2022-10-24T12:29:03.671Z,24.05
2022-10-24T12:31:34.670Z,27.50
2022-10-24T12:34:21.094Z,26.52
2022-10-24T12:37:06.833Z,26.33
2022-10-24T12:39:38.341Z,27.13
2022-10-24T12:42:09.798Z,29.40
2022-10-24T12:44:42.309Z,30.50
2022-10-24T12:47:31.754Z,31.02
2022-10-24T12:50:06.087Z,33.02
2022-10-24T12:52:38.381Z,28.23
2022-10-24T12:55:09.867Z,27.00
2022-10-24T12:57:41.430Z,26.20
2022-10-24T13:00:25.102Z,28.05
2022-10-24T13:02:56.527Z,32.50
2022-10-24T13:05:28.114Z,29.32
2022-10-24T13:08:01.758Z,30.32
2022-10-24T13:10:33.142Z,24.70
2022-10-24T13:15:49.328Z,29.85
2022-10-24T13:18:30.984Z,25.80
2022-10-24T13:21:17.758Z,30.30
2022-10-24T13:23:51.174Z,34.45
2022-10-24T13:26:42.520Z,29.90
2022-10-24T13:29:32.143Z,29.63
2022-10-24T13:32:08.345Z,29.80
2022-10-24T13:34:45.912Z,31.48
2022-10-24T13:37:20.045Z,32.67
2022-10-24T13:39:54.509Z,31.48
2022-10-24T13:42:41.019Z,32.48
2022-10-24T13:45:26.574Z,30.05
2022-10-24T13:47:58.286Z,33.42
2022-10-24T13:50:51.648Z,33.48
2022-10-24T13:53:28.227Z,29.48
2022-10-24T13:55:52.689Z,29.75
2022-10-24T13:58:27.702Z,29.87
2022-10-24T14:00:59.131Z,31.60
2022-10-24T14:03:31.237Z,27.65
2022-10-24T14:06:02.659Z,34.15
2022-10-24T14:08:34.149Z,32.73
2022-10-24T14:11:08.397Z,33.63
2022-10-24T14:13:40.242Z,35.23
2022-10-24T14:16:10.595Z,32.28
2022-10-24T14:18:42.108Z,33.85
2022-10-24T14:21:22.397Z,43.63
2022-10-24T14:24:09.106Z,36.48
2022-10-24T14:26:40.141Z,36.13
2022-10-24T14:29:14.802Z,37.23
2022-10-24T14:31:46.114Z,34.38
2022-10-24T14:34:21.466Z,40.83
2022-10-24T14:36:55.135Z,33.95
2022-10-24T14:39:25.703Z,39.33
2022-10-24T14:41:58.494Z,34.95
2022-10-24T14:44:38.493Z,37.30
2022-10-24T14:47:12.471Z,38.17
2022-10-24T14:49:42.810Z,40.35
2022-10-24T14:52:19.825Z,36.50
2022-10-24T14:54:56.858Z,37.33
2022-10-24T14:57:28.089Z,39.40
2022-10-24T14:59:59.749Z,35.60
2022-10-24T15:02:43.042Z,43.45
2022-10-24T15:05:24.784Z,39.30
2022-10-24T15:08:20.515Z,39.65
2022-10-24T15:10:41.692Z,42.13
2022-10-24T15:13:35.112Z,38.23
2022-10-24T15:16:17.563Z,45.10
2022-10-24T15:18:56.714Z,43.45
2022-10-24T15:21:35.585Z,42.45
2022-10-24T15:24:06.029Z,39.75
2022-10-24T15:26:55.236Z,41.90
2022-10-24T15:29:29.252Z,43.55
2022-10-24T15:32:09.528Z,37.30
2022-10-24T15:34:47.156Z,34.65
2022-10-24T15:37:21.919Z,32.98
2022-10-24T15:39:53.349Z,36.03
2022-10-24T15:42:26.429Z,40.67
2022-10-24T15:44:56.852Z,34.48
2022-10-24T15:47:32.275Z,33.23
2022-10-24T15:50:09.451Z,36.25
2022-10-24T15:52:40.524Z,31.57
2022-10-24T15:55:28.384Z,35.92
2022-10-24T15:58:01.010Z,28.30
2022-10-24T16:00:34.313Z,28.47
2022-10-24T16:03:09.253Z,28.00
2022-10-24T16:05:40.641Z,31.55
2022-10-24T16:08:19.209Z,30.65
2022-10-24T16:10:56.517Z,29.07
2022-10-24T16:13:26.895Z,33.92
2022-10-24T16:19:04.565Z,26.35
2022-10-24T16:24:28.247Z,29.00
2022-10-24T16:27:00.789Z,30.35
2022-10-24T16:29:32.955Z,32.03
2022-10-24T16:32:04.130Z,26.75
2022-10-24T16:34:36.740Z,26.60
2022-10-24T16:37:21.765Z,35.78
2022-10-24T16:40:00.300Z,31.65
2022-10-24T16:42:30.595Z,30.88
2022-10-24T16:45:07.081Z,29.25
2022-10-24T16:47:39.718Z,33.50
2022-10-24T16:50:12.081Z,29.45
2022-10-24T16:52:42.351Z,32.35
2022-10-24T16:55:13.824Z,29.87
2022-10-24T16:57:44.280Z,27.62
2022-10-24T17:00:16.959Z,29.37
2022-10-24T17:02:51.938Z,32.53
2022-10-24T17:05:23.638Z,31.70
2022-10-24T17:07:54.017Z,27.62
2022-10-24T17:10:25.059Z,28.65
2022-10-24T17:12:55.454Z,27.32
2022-10-24T17:15:25.800Z,33.20
2022-10-24T17:17:57.479Z,26.27
2022-10-24T17:20:27.737Z,28.32
2022-10-24T17:23:00.763Z,29.32
2022-10-24T17:25:30.262Z,28.95
2022-10-24T17:28:00.671Z,31.80
2022-10-24T17:30:31.446Z,31.37
2022-10-24T17:33:01.767Z,30.10
2022-10-24T17:35:32.047Z,30.97
2022-10-24T17:38:15.739Z,29.20
2022-10-24T17:40:48.330Z,30.25
2022-10-24T17:43:28.570Z,29.60
2022-10-24T17:45:59.237Z,27.48
2022-10-24T17:48:29.501Z,28.40
2022-10-24T17:51:04.498Z,31.33
2022-10-24T17:53:34.772Z,29.02
2022-10-24T17:56:05.079Z,32.13
2022-10-24T17:58:35.456Z,29.48
2022-10-24T18:01:05.874Z,31.50
2022-10-24T18:03:36.130Z,29.75
2022-10-24T18:06:07.460Z,29.25
2022-10-24T18:08:37.794Z,29.95
2022-10-24T18:11:09.747Z,30.97
2022-10-24T18:13:40.598Z,29.10
2022-10-24T18:16:15.270Z,29.40
2022-10-24T18:18:45.715Z,30.23
2022-10-24T18:21:20.110Z,30.23
2022-10-24T18:23:48.749Z,30.35
2022-10-24T18:26:19.979Z,29.50
2022-10-24T18:28:51.339Z,30.57
2022-10-24T18:31:23.489Z,29.37
2022-10-24T18:33:53.760Z,29.40
2022-10-24T18:36:25.558Z,29.67
2022-10-24T18:38:59.461Z,29.48
2022-10-24T18:41:31.087Z,30.20
2022-10-24T18:44:02.672Z,32.15
2022-10-24T18:46:33.175Z,28.92
2022-10-24T18:49:03.607Z,31.07
2022-10-24T18:51:51.443Z,29.87
2022-10-24T18:54:22.298Z,30.60
2022-10-24T18:56:52.682Z,30.82
2022-10-24T18:59:23.443Z,31.60
2022-10-24T19:02:11.523Z,31.52
2022-10-24T19:04:42.997Z,30.12
2022-10-24T19:07:13.256Z,30.75
2022-10-24T19:09:43.661Z,32.15
2022-10-24T19:12:13.942Z,30.15
2022-10-24T19:14:44.500Z,31.97
2022-10-24T19:17:15.460Z,31.50
2022-10-24T19:19:45.727Z,31.75
2022-10-24T19:22:16.078Z,30.45
2022-10-24T19:24:46.319Z,33.73
2022-10-24T19:27:16.587Z,31.65
2022-10-24T19:29:46.894Z,32.38
2022-10-24T19:32:17.394Z,32.48
2022-10-24T19:34:48.002Z,32.30
2022-10-24T19:37:18.254Z,32.03
2022-10-24T19:39:48.515Z,33.42
2022-10-24T19:42:18.814Z,32.53
2022-10-24T19:44:53.419Z,32.30
2022-10-24T19:47:24.984Z,33.35
2022-10-24T19:49:55.357Z,33.45
2022-10-24T19:52:25.594Z,31.68
2022-10-24T19:54:55.920Z,32.00
2022-10-24T19:57:26.362Z,33.10
2022-10-24T19:59:56.620Z,32.60
2022-10-24T20:02:28.140Z,37.35
2022-10-24T20:04:59.383Z,33.00
2022-10-24T20:07:29.638Z,34.15
2022-10-24T20:09:59.914Z,32.10
2022-10-24T20:12:30.157Z,33.00
2022-10-24T20:15:00.451Z,33.40
2022-10-24T20:17:30.713Z,34.30
2022-10-24T20:20:01.040Z,33.23
2022-10-24T20:25:47.783Z,32.88
2022-10-24T20:31:39.249Z,32.33
2022-10-24T20:34:13.125Z,33.75
2022-10-24T20:36:45.225Z,36.03
2022-10-24T20:39:16.974Z,33.75
2022-10-24T20:41:50.326Z,34.90
2022-10-24T20:44:18.865Z,33.95
2022-10-24T20:46:49.338Z,34.10
2022-10-24T20:49:19.577Z,34.75
2022-10-24T20:51:49.812Z,34.30
2022-10-24T20:54:20.625Z,34.48
2022-10-24T20:56:50.869Z,35.15
2022-10-24T20:59:21.118Z,34.05
2022-10-24T21:01:51.607Z,33.73
2022-10-24T21:04:22.178Z,36.45
2022-10-24T21:06:55.583Z,36.10
2022-10-24T21:09:25.855Z,32.93
2022-10-24T21:11:56.119Z,34.83
2022-10-24T21:14:28.916Z,36.58
2022-10-24T21:16:59.187Z,35.17
2022-10-24T21:19:30.858Z,36.17
2022-10-24T21:22:01.160Z,34.48
2022-10-24T21:27:42.048Z,36.30
2022-10-24T21:30:14.778Z,37.55
2022-10-24T21:32:44.400Z,35.45
2022-10-24T21:38:17.464Z,35.20
2022-10-24T21:43:35.046Z,36.60
2022-10-24T21:46:15.522Z,36.33
2022-10-24T21:48:45.803Z,36.68
2022-10-24T21:51:17.037Z,37.63
2022-10-24T21:53:51.241Z,36.60
2022-10-24T21:56:22.518Z,37.40
2022-10-24T21:58:56.974Z,37.50
2022-10-24T22:01:27.761Z,41.68
2022-10-24T22:03:58.360Z,38.23
2022-10-24T22:06:29.438Z,37.08
2022-10-24T22:08:59.696Z,38.28
2022-10-24T22:11:31.133Z,37.00
2022-10-24T22:14:01.390Z,36.17
2022-10-24T22:16:32.253Z,37.65
2022-10-24T22:19:03.503Z,37.00
2022-10-24T22:21:35.555Z,34.27
2022-10-24T22:26:38.440Z,35.38
2022-10-24T22:29:09.308Z,38.33
2022-10-24T22:31:39.765Z,35.63
2022-10-24T22:34:10.083Z,39.63
2022-10-24T22:36:47.744Z,35.10
2022-10-24T22:39:19.184Z,43.00
2022-10-24T22:41:49.816Z,37.17
2022-10-24T22:44:21.617Z,38.63
2022-10-24T22:46:53.067Z,35.78
2022-10-24T22:49:30.388Z,36.15
2022-10-24T22:52:00.951Z,35.23
2022-10-24T22:54:32.370Z,33.67
2022-10-24T22:57:03.010Z,36.70
2022-10-24T22:59:34.007Z,37.17
2022-10-24T23:02:05.597Z,39.67
2022-10-24T23:04:37.026Z,39.70
2022-10-24T23:07:08.476Z,38.78
2022-10-24T23:09:38.729Z,38.30
2022-10-24T23:12:16.255Z,37.60
2022-10-24T23:14:47.201Z,38.28
2022-10-24T23:17:18.973Z,38.48
2022-10-24T23:23:28.921Z,46.70
2022-10-24T23:25:50.090Z,43.90
2022-10-24T23:28:21.551Z,43.00
2022-10-24T23:30:52.012Z,40.52
2022-10-24T23:33:31.546Z,45.83
2022-10-24T23:36:02.369Z,48.65
2022-10-24T23:41:28.980Z,43.80
2022-10-24T23:43:59.601Z,46.45
2022-10-24T23:46:31.003Z,40.83
2022-10-24T23:49:11.698Z,43.13
2022-10-24T23:51:59.873Z,39.45
2022-10-24T23:54:32.030Z,38.17
2022-10-24T23:57:02.389Z,38.83
2022-10-24T23:59:32.632Z,38.78
